createdAt,value
2023-04-07T00:01:46.465Z,19.40
2023-04-07T00:04:13.760Z,20.63
2023-04-07T00:06:41.188Z,15.15
2023-04-07T00:09:08.108Z,16.08
2023-04-07T00:11:35.043Z,17.05
2023-04-07T00:14:02.176Z,16.00
2023-04-07T00:16:29.222Z,15.45
2023-04-07T00:18:56.284Z,15.63
2023-04-07T00:21:23.157Z,15.70
2023-04-07T00:23:50.264Z,16.25
2023-04-07T00:26:17.150Z,17.75
2023-04-07T00:28:45.229Z,23.08
2023-04-07T00:31:12.335Z,18.20
2023-04-07T00:33:39.470Z,15.82
2023-04-07T00:36:06.555Z,18.40
2023-04-07T00:38:33.852Z,16.75
2023-04-07T00:41:01.391Z,18.20
2023-04-07T00:43:28.364Z,16.08
2023-04-07T00:45:56.206Z,17.42
2023-04-07T00:48:25.608Z,14.48
2023-04-07T00:50:53.006Z,17.30
2023-04-07T00:53:20.930Z,16.80
2023-04-07T00:55:48.064Z,16.45
2023-04-07T00:58:15.075Z,16.65
2023-04-07T01:00:51.800Z,16.35
2023-04-07T01:03:26.657Z,17.90
2023-04-07T01:06:02.359Z,19.83
2023-04-07T01:08:35.648Z,15.50
2023-04-07T01:11:11.312Z,18.15
2023-04-07T01:13:45.976Z,17.23
2023-04-07T01:16:53.666Z,17.25
2023-04-07T01:19:38.440Z,16.98
2023-04-07T01:22:12.809Z,16.35
2023-04-07T01:25:15.874Z,18.92
2023-04-07T01:27:51.870Z,17.88
2023-04-07T01:30:20.576Z,18.77
2023-04-07T01:32:52.268Z,17.08
2023-04-07T01:35:23.393Z,14.75
2023-04-07T01:37:52.350Z,13.20
2023-04-07T01:40:22.155Z,16.58
2023-04-07T01:45:17.480Z,22.15
2023-04-07T01:47:45.890Z,24.95
2023-04-07T01:50:13.618Z,25.47
2023-04-07T01:52:42.881Z,25.48
2023-04-07T01:55:10.630Z,28.75
2023-04-07T01:57:44.176Z,26.52
2023-04-07T02:00:15.963Z,22.85
2023-04-07T02:02:49.224Z,24.00
2023-04-07T02:05:20.914Z,24.67
2023-04-07T02:07:56.153Z,27.05
2023-04-07T02:10:27.141Z,27.20
2023-04-07T02:13:00.616Z,23.27
2023-04-07T02:15:31.480Z,24.10
2023-04-07T02:18:00.891Z,26.70
2023-04-07T02:22:56.227Z,25.98
2023-04-07T02:25:27.192Z,23.85
2023-04-07T02:27:55.753Z,28.30
2023-04-07T02:30:23.149Z,25.00
2023-04-07T02:32:52.274Z,22.92
2023-04-07T02:35:21.226Z,24.58
2023-04-07T02:37:48.486Z,25.15
2023-04-07T02:40:16.350Z,28.77
2023-04-07T02:42:44.354Z,25.00
2023-04-07T02:45:11.917Z,24.30
2023-04-07T02:47:39.648Z,25.58
2023-04-07T02:50:07.113Z,26.13
2023-04-07T02:55:09.799Z,24.02
2023-04-07T02:57:37.019Z,25.15
2023-04-07T03:00:09.440Z,24.60
2023-04-07T03:03:09.186Z,24.10
2023-04-07T03:05:39.336Z,27.60
2023-04-07T03:08:07.653Z,29.05
2023-04-07T03:10:34.635Z,23.00
2023-04-07T03:13:01.790Z,22.52
2023-04-07T03:15:30.123Z,24.30
2023-04-07T03:17:57.295Z,24.30
2023-04-07T03:20:24.279Z,24.08
2023-04-07T03:22:51.545Z,21.23
2023-04-07T03:25:25.665Z,22.73
2023-04-07T03:27:52.929Z,23.30
2023-04-07T03:30:20.906Z,25.48
2023-04-07T03:32:48.646Z,17.83
2023-04-07T03:35:15.797Z,16.85
2023-04-07T03:37:44.873Z,13.77
2023-04-07T03:40:16.035Z,18.33
2023-04-07T03:42:43.744Z,12.63
2023-04-07T03:45:12.870Z,13.38
2023-04-07T03:47:44.920Z,15.40
2023-04-07T03:50:12.746Z,12.07
2023-04-07T03:52:53.154Z,12.10
2023-04-07T03:55:26.741Z,14.15
2023-04-07T03:57:58.927Z,15.48
2023-04-07T04:00:31.846Z,17.33
2023-04-07T04:03:07.217Z,14.07
2023-04-07T04:05:37.185Z,13.07
2023-04-07T04:08:04.407Z,13.00
2023-04-07T04:10:33.519Z,12.95
2023-04-07T04:13:04.074Z,13.85
2023-04-07T04:15:31.238Z,15.82
2023-04-07T04:18:00.664Z,21.10
2023-04-07T04:20:27.830Z,26.52
2023-04-07T04:22:55.480Z,22.77
2023-04-07T04:25:22.691Z,23.92
2023-04-07T04:27:53.926Z,29.42
2023-04-07T04:30:23.610Z,29.27
2023-04-07T04:33:02.013Z,26.13
2023-04-07T04:35:41.568Z,26.30
2023-04-07T04:38:16.328Z,30.55
2023-04-07T04:40:49.659Z,29.55
2023-04-07T04:43:19.862Z,28.60
2023-04-07T04:45:47.629Z,27.42
2023-04-07T04:48:17.420Z,27.73
2023-04-07T04:50:45.011Z,27.90
2023-04-07T04:53:14.503Z,30.00
2023-04-07T04:55:52.232Z,25.85
2023-04-07T04:58:27.190Z,28.52
2023-04-07T05:00:58.332Z,27.25
2023-04-07T05:03:33.685Z,26.17
2023-04-07T05:06:04.364Z,32.30
2023-04-07T05:08:32.407Z,27.08
2023-04-07T05:11:00.704Z,26.85
2023-04-07T05:13:31.841Z,27.40
2023-04-07T05:16:02.584Z,26.90
2023-04-07T05:18:31.099Z,24.52
2023-04-07T05:20:59.275Z,29.65
2023-04-07T05:23:28.081Z,24.90
2023-04-07T05:25:55.793Z,25.30
2023-04-07T05:28:24.745Z,25.73
2023-04-07T05:30:53.893Z,25.15
2023-04-07T05:33:25.620Z,23.67
2023-04-07T05:35:54.154Z,22.83
2023-04-07T05:38:21.473Z,26.55
2023-04-07T05:40:49.665Z,20.92
2023-04-07T05:43:24.660Z,22.17
2023-04-07T05:45:51.903Z,24.63
2023-04-07T05:48:19.264Z,24.65
2023-04-07T05:50:47.644Z,26.10
2023-04-07T05:53:17.798Z,23.92
2023-04-07T05:55:44.838Z,21.52
2023-04-07T05:58:24.548Z,22.23
2023-04-07T06:00:54.366Z,23.98
2023-04-07T06:03:21.843Z,24.15
2023-04-07T06:06:01.677Z,27.50
2023-04-07T06:08:29.318Z,26.45
2023-04-07T06:10:57.082Z,27.58
2023-04-07T06:13:24.005Z,26.55
2023-04-07T06:15:51.321Z,28.15
2023-04-07T06:18:18.315Z,28.95
2023-04-07T06:20:45.367Z,26.75
2023-04-07T06:23:12.248Z,28.30
2023-04-07T06:25:47.220Z,22.70
2023-04-07T06:28:15.540Z,23.45
2023-04-07T06:30:42.631Z,22.75
2023-04-07T06:33:12.318Z,23.23
2023-04-07T06:35:41.663Z,20.20
2023-04-07T06:38:08.628Z,25.50
2023-04-07T06:40:35.826Z,21.70
2023-04-07T06:43:04.177Z,22.55
2023-04-07T06:45:46.050Z,21.25
2023-04-07T06:48:13.354Z,22.42
2023-04-07T06:50:40.408Z,23.75
2023-04-07T06:53:07.460Z,19.67
2023-04-07T06:55:34.333Z,22.85
2023-04-07T06:58:01.366Z,25.70
2023-04-07T07:00:30.348Z,27.17
2023-04-07T07:02:57.804Z,21.23
2023-04-07T07:05:25.593Z,25.63
2023-04-07T07:07:52.703Z,18.85
2023-04-07T07:10:22.886Z,25.48
2023-04-07T07:12:51.706Z,13.55
2023-04-07T07:15:18.757Z,9.52
2023-04-07T07:17:45.682Z,11.32
2023-04-07T07:20:12.718Z,10.57
2023-04-07T07:22:39.794Z,14.15
2023-04-07T07:25:07.322Z,12.00
2023-04-07T07:27:34.298Z,11.93
2023-04-07T07:30:01.556Z,9.93
2023-04-07T07:32:28.880Z,10.25
2023-04-07T07:34:56.528Z,11.13
2023-04-07T07:37:23.400Z,10.55
2023-04-07T07:39:50.390Z,10.90
2023-04-07T07:42:21.564Z,8.93
2023-04-07T07:44:48.825Z,11.10
2023-04-07T07:47:15.664Z,11.32
2023-04-07T07:49:43.772Z,16.77
2023-04-07T07:52:11.362Z,13.82
2023-04-07T07:54:38.377Z,14.75
2023-04-07T07:57:06.241Z,9.38
2023-04-07T07:59:33.281Z,11.10
2023-04-07T08:02:00.520Z,9.80
2023-04-07T08:04:27.713Z,12.27
2023-04-07T08:06:55.202Z,13.32
2023-04-07T08:09:22.302Z,11.00
2023-04-07T08:11:49.660Z,12.90
2023-04-07T08:14:17.304Z,11.52
2023-04-07T08:16:45.490Z,10.03
2023-04-07T08:19:13.539Z,11.38
2023-04-07T08:21:40.794Z,12.30
2023-04-07T08:24:09.149Z,11.93
2023-04-07T08:26:36.196Z,11.23
2023-04-07T08:29:03.183Z,12.00
2023-04-07T08:31:30.357Z,9.30
2023-04-07T08:34:00.210Z,11.18
2023-04-07T08:36:28.925Z,11.43
2023-04-07T08:38:55.902Z,13.18
2023-04-07T08:41:39.824Z,12.45
2023-04-07T08:44:07.839Z,10.90
2023-04-07T08:46:35.131Z,11.25
2023-04-07T08:49:02.754Z,13.05
2023-04-07T08:51:34.695Z,9.35
2023-04-07T08:54:05.265Z,9.48
2023-04-07T08:56:34.517Z,11.98
2023-04-07T08:59:03.116Z,10.25
2023-04-07T09:01:31.090Z,11.80
2023-04-07T09:03:59.205Z,10.02
2023-04-07T09:06:27.362Z,11.55
2023-04-07T09:08:55.401Z,13.57
2023-04-07T09:11:23.706Z,10.55
2023-04-07T09:13:51.310Z,8.98
2023-04-07T09:16:18.949Z,12.65
2023-04-07T09:18:46.216Z,10.40
2023-04-07T09:21:15.214Z,11.98
2023-04-07T09:23:43.152Z,13.23
2023-04-07T09:26:26.123Z,12.82
2023-04-07T09:28:59.743Z,13.15
2023-04-07T09:31:50.752Z,11.93
2023-04-07T09:34:41.033Z,12.43
2023-04-07T09:37:09.699Z,13.65
2023-04-07T09:39:57.067Z,10.90
2023-04-07T09:42:24.045Z,10.68
2023-04-07T09:44:51.187Z,11.23
2023-04-07T09:47:18.262Z,12.70
2023-04-07T09:49:53.709Z,10.00
2023-04-07T09:52:26.457Z,12.23
2023-04-07T09:54:55.873Z,13.05
2023-04-07T09:57:23.849Z,14.65
2023-04-07T09:59:54.356Z,10.80
2023-04-07T10:02:23.224Z,10.82
2023-04-07T10:04:50.555Z,13.18
2023-04-07T10:07:17.736Z,12.05
2023-04-07T10:09:44.679Z,10.82
2023-04-07T10:12:12.464Z,12.65
2023-04-07T10:14:40.425Z,11.23
2023-04-07T10:17:08.534Z,10.80
2023-04-07T10:19:36.409Z,10.85
2023-04-07T10:22:05.925Z,12.75
2023-04-07T10:24:59.057Z,14.43
2023-04-07T10:27:37.415Z,13.43
2023-04-07T10:30:07.292Z,12.30
2023-04-07T10:32:49.614Z,13.40
2023-04-07T10:35:17.397Z,11.15
2023-04-07T10:38:16.936Z,11.65
2023-04-07T10:40:44.594Z,11.32
2023-04-07T10:43:12.297Z,12.27
2023-04-07T10:45:56.196Z,13.95
2023-04-07T10:48:23.615Z,11.35
2023-04-07T10:51:06.195Z,13.20
2023-04-07T10:53:37.153Z,11.57
2023-04-07T10:56:04.548Z,11.68
2023-04-07T10:58:34.730Z,12.30
2023-04-07T11:01:08.007Z,13.25
2023-04-07T11:03:36.397Z,12.80
2023-04-07T11:06:11.359Z,12.27
2023-04-07T11:08:48.962Z,10.20
2023-04-07T11:11:42.518Z,13.25
2023-04-07T11:14:09.839Z,11.02
2023-04-07T11:16:42.446Z,10.93
2023-04-07T11:19:10.061Z,14.27
2023-04-07T11:21:37.114Z,12.45
2023-04-07T11:24:04.406Z,11.27
2023-04-07T11:26:38.268Z,13.98
2023-04-07T11:29:05.380Z,11.40
2023-04-07T11:31:32.689Z,11.65
2023-04-07T11:34:05.446Z,13.30
2023-04-07T11:36:34.627Z,12.00
2023-04-07T11:39:03.060Z,14.00
2023-04-07T11:41:33.029Z,12.30
2023-04-07T11:44:05.176Z,13.38
2023-04-07T11:46:32.394Z,15.05
2023-04-07T11:49:13.480Z,12.55
2023-04-07T11:51:43.126Z,14.65
2023-04-07T11:54:11.160Z,13.27
2023-04-07T11:56:46.810Z,13.45
2023-04-07T11:59:25.052Z,12.05
2023-04-07T12:01:56.159Z,11.88
2023-04-07T12:04:24.898Z,13.35
2023-04-07T12:06:52.056Z,15.52
2023-04-07T12:09:35.977Z,12.48
2023-04-07T12:12:06.365Z,14.82
2023-04-07T12:14:34.468Z,12.88
2023-04-07T12:17:03.631Z,13.93
2023-04-07T12:19:36.233Z,13.55
2023-04-07T12:22:03.779Z,13.85
2023-04-07T12:24:32.438Z,12.70
2023-04-07T12:26:59.906Z,11.82
2023-04-07T12:29:27.092Z,13.98
2023-04-07T12:31:54.233Z,13.15
2023-04-07T12:34:21.660Z,13.77
2023-04-07T12:36:48.871Z,15.15
2023-04-07T12:39:16.718Z,18.90
2023-04-07T12:41:45.871Z,14.60
2023-04-07T12:44:12.940Z,14.65
2023-04-07T12:46:40.016Z,14.15
2023-04-07T12:49:07.314Z,34.42
2023-04-07T12:51:34.688Z,16.70
2023-04-07T12:54:01.822Z,13.40
2023-04-07T12:56:28.857Z,14.48
2023-04-07T12:58:55.963Z,16.40
2023-04-07T13:01:22.987Z,12.70
2023-04-07T13:03:50.114Z,14.63
2023-04-07T13:06:18.073Z,13.88
2023-04-07T13:08:45.097Z,14.70
2023-04-07T13:11:12.215Z,14.73
2023-04-07T13:13:39.193Z,14.85
2023-04-07T13:16:06.324Z,15.15
2023-04-07T13:18:33.304Z,16.40
2023-04-07T13:21:33.583Z,13.57
2023-04-07T13:23:48.607Z,13.60
2023-04-07T13:26:15.561Z,14.00
2023-04-07T13:28:46.055Z,14.77
2023-04-07T13:31:16.287Z,17.85
2023-04-07T13:33:43.907Z,14.00
2023-04-07T13:36:11.030Z,12.82
2023-04-07T13:38:38.395Z,14.02
2023-04-07T13:41:05.572Z,14.23
2023-04-07T13:43:32.493Z,15.18
2023-04-07T13:45:59.479Z,14.02
2023-04-07T13:48:26.621Z,14.30
2023-04-07T13:50:53.735Z,13.55
2023-04-07T13:53:21.762Z,14.07
2023-04-07T13:55:48.940Z,12.82
2023-04-07T13:58:16.930Z,13.80
2023-04-07T14:00:43.903Z,14.07
2023-04-07T14:03:11.680Z,19.05
2023-04-07T14:06:01.420Z,14.88
2023-04-07T14:08:28.472Z,15.35
2023-04-07T14:10:55.736Z,17.08
2023-04-07T14:13:27.277Z,14.13
2023-04-07T14:15:54.453Z,16.48
2023-04-07T14:18:21.698Z,15.35
2023-04-07T14:20:48.815Z,14.82
2023-04-07T14:23:20.771Z,13.30
2023-04-07T14:25:54.727Z,14.15
2023-04-07T14:28:21.677Z,14.57
2023-04-07T14:30:48.650Z,18.33
2023-04-07T14:33:17.778Z,16.30
2023-04-07T14:35:45.096Z,15.15
2023-04-07T14:38:12.036Z,13.88
2023-04-07T14:40:41.334Z,16.88
2023-04-07T14:43:08.232Z,13.63
2023-04-07T14:45:35.788Z,14.32
2023-04-07T14:48:03.014Z,16.00
2023-04-07T14:50:33.549Z,14.32
2023-04-07T14:53:01.087Z,15.30
2023-04-07T14:55:28.276Z,15.52
2023-04-07T14:57:55.288Z,16.35
2023-04-07T15:00:22.799Z,13.38
2023-04-07T15:02:50.063Z,17.70
2023-04-07T15:05:17.392Z,19.05
2023-04-07T15:07:45.926Z,19.85
2023-04-07T15:10:13.138Z,15.73
2023-04-07T15:12:40.684Z,14.93
2023-04-07T15:15:07.848Z,18.63
2023-04-07T15:17:43.282Z,15.85
2023-04-07T15:20:12.876Z,15.15
2023-04-07T15:22:40.512Z,16.02
2023-04-07T15:25:08.012Z,17.27
2023-04-07T15:27:35.212Z,17.45
2023-04-07T15:30:02.292Z,14.10
2023-04-07T15:32:32.050Z,17.30
2023-04-07T15:34:59.240Z,13.77
2023-04-07T15:37:26.801Z,16.38
2023-04-07T15:39:53.867Z,16.40
2023-04-07T15:42:20.955Z,18.05
2023-04-07T15:44:48.302Z,18.65
2023-04-07T15:47:16.031Z,16.00
2023-04-07T15:49:44.330Z,18.70
2023-04-07T15:52:13.675Z,14.13
2023-04-07T15:54:40.814Z,16.25
2023-04-07T15:57:07.834Z,18.70
2023-04-07T15:59:36.084Z,17.75
2023-04-07T16:02:03.186Z,14.73
2023-04-07T16:04:30.325Z,17.25
2023-04-07T16:06:57.264Z,16.52
2023-04-07T16:09:24.277Z,16.73
2023-04-07T16:11:51.275Z,19.98
2023-04-07T16:14:18.212Z,15.75
2023-04-07T16:16:45.338Z,20.58
2023-04-07T16:19:14.678Z,17.90
2023-04-07T16:21:41.496Z,17.13
2023-04-07T16:24:08.551Z,19.77
2023-04-07T16:26:35.544Z,19.50
2023-04-07T16:29:02.733Z,22.73
2023-04-07T16:31:29.687Z,16.90
2023-04-07T16:33:57.067Z,18.65
2023-04-07T16:36:25.175Z,21.65
2023-04-07T16:38:52.366Z,17.15
2023-04-07T16:41:20.472Z,18.70
2023-04-07T16:43:47.727Z,17.75
2023-04-07T16:46:15.093Z,17.23
2023-04-07T16:48:42.166Z,18.63
2023-04-07T16:51:09.074Z,16.20
2023-04-07T16:53:37.276Z,17.05
2023-04-07T16:56:04.405Z,28.02
2023-04-07T16:58:31.494Z,18.85
2023-04-07T17:00:58.645Z,17.63
2023-04-07T17:03:25.966Z,112.72
2023-04-07T17:05:53.467Z,108.38
2023-04-07T17:08:21.175Z,18.35
2023-04-07T17:10:48.197Z,14.60
2023-04-07T17:13:15.300Z,16.90
2023-04-07T17:15:44.810Z,16.80
2023-04-07T17:18:14.077Z,18.40
2023-04-07T17:20:41.542Z,15.50
2023-04-07T17:23:10.437Z,16.75
2023-04-07T17:25:37.917Z,16.70
2023-04-07T17:28:04.795Z,14.90
2023-04-07T17:30:32.358Z,16.65
2023-04-07T17:32:59.482Z,14.82
2023-04-07T17:35:26.517Z,17.10
2023-04-07T17:37:53.686Z,14.93
2023-04-07T17:40:21.610Z,15.23
2023-04-07T17:42:49.799Z,16.38
2023-04-07T17:45:18.524Z,15.82
2023-04-07T17:47:46.425Z,15.17
2023-04-07T17:50:14.913Z,15.90
2023-04-07T17:52:42.346Z,17.40
2023-04-07T17:55:09.992Z,16.80
2023-04-07T17:57:37.322Z,16.27
2023-04-07T18:00:05.940Z,17.38
2023-04-07T18:02:40.533Z,21.05
2023-04-07T18:05:08.310Z,16.48
2023-04-07T18:07:35.698Z,16.75
2023-04-07T18:10:03.482Z,15.80
2023-04-07T18:12:31.959Z,19.27
2023-04-07T18:14:59.447Z,23.25
2023-04-07T18:17:26.582Z,20.23
2023-04-07T18:19:53.729Z,19.42
2023-04-07T18:22:22.712Z,21.30
2023-04-07T18:24:51.950Z,19.33
2023-04-07T18:27:19.385Z,23.63
2023-04-07T18:29:46.636Z,22.88
2023-04-07T18:32:13.663Z,21.27
2023-04-07T18:34:40.599Z,17.98
2023-04-07T18:37:07.621Z,21.73
2023-04-07T18:39:34.723Z,20.83
2023-04-07T18:42:01.689Z,18.95
2023-04-07T18:44:28.662Z,16.83
2023-04-07T18:46:55.946Z,17.40
2023-04-07T18:49:23.535Z,19.67
2023-04-07T18:51:50.426Z,17.35
2023-04-07T18:54:17.839Z,15.63
2023-04-07T18:56:45.613Z,18.08
2023-04-07T18:59:12.630Z,19.67
2023-04-07T19:01:41.831Z,21.17
2023-04-07T19:04:09.232Z,19.50
2023-04-07T19:06:37.363Z,19.92
2023-04-07T19:09:04.811Z,20.05
2023-04-07T19:11:32.003Z,19.95
2023-04-07T19:13:59.183Z,18.83
2023-04-07T19:16:26.402Z,22.48
2023-04-07T19:18:54.198Z,23.15
2023-04-07T19:21:21.447Z,21.27
2023-04-07T19:23:48.742Z,23.35
2023-04-07T19:26:16.602Z,21.48
2023-04-07T19:28:44.274Z,24.88
2023-04-07T19:31:11.950Z,24.27
2023-04-07T19:33:38.808Z,25.05
2023-04-07T19:36:06.407Z,24.27
2023-04-07T19:38:33.359Z,25.75
2023-04-07T19:41:00.456Z,26.65
2023-04-07T19:43:27.279Z,25.33
2023-04-07T19:45:54.344Z,22.30
2023-04-07T19:48:21.564Z,24.83
2023-04-07T19:50:51.750Z,22.73
2023-04-07T19:53:20.016Z,23.95
2023-04-07T19:55:47.038Z,21.55
2023-04-07T19:58:14.197Z,20.42
2023-04-07T20:00:41.469Z,21.65
2023-04-07T20:03:08.643Z,24.60
2023-04-07T20:05:37.223Z,22.17
2023-04-07T20:08:04.309Z,25.77
2023-04-07T20:10:31.326Z,22.70
2023-04-07T20:12:58.402Z,22.67
2023-04-07T20:15:25.437Z,23.55
2023-04-07T20:17:52.387Z,25.63
2023-04-07T20:20:19.658Z,25.85
2023-04-07T20:22:46.634Z,25.25
2023-04-07T20:25:13.927Z,27.48
2023-04-07T20:27:40.836Z,25.10
2023-04-07T20:30:09.365Z,28.00
2023-04-07T20:32:36.535Z,27.90
2023-04-07T20:35:03.987Z,23.75
2023-04-07T20:37:30.936Z,26.25
2023-04-07T20:39:58.063Z,25.13
2023-04-07T20:42:25.110Z,27.85
2023-04-07T20:44:53.700Z,22.55
2023-04-07T20:47:20.623Z,31.30
2023-04-07T20:49:47.712Z,21.83
2023-04-07T20:52:14.897Z,23.30
2023-04-07T20:54:44.875Z,26.23
2023-04-07T20:57:12.096Z,26.63
2023-04-07T20:59:38.914Z,24.23
2023-04-07T21:02:06.739Z,22.70
2023-04-07T21:04:34.300Z,24.83
2023-04-07T21:07:01.381Z,22.60
2023-04-07T21:09:28.485Z,23.30
2023-04-07T21:11:55.640Z,26.48
2023-04-07T21:14:22.587Z,24.73
2023-04-07T21:16:50.012Z,22.75
2023-04-07T21:19:17.837Z,25.25
2023-04-07T21:21:44.745Z,27.17
2023-04-07T21:24:12.287Z,26.88
2023-04-07T21:26:39.382Z,25.88
2023-04-07T21:29:06.638Z,24.08
2023-04-07T21:31:33.856Z,22.70
2023-04-07T21:34:00.782Z,35.20
2023-04-07T21:36:32.163Z,47.55
2023-04-07T21:38:59.182Z,24.48
2023-04-07T21:41:25.999Z,21.40
2023-04-07T21:43:52.866Z,22.75
2023-04-07T21:46:19.974Z,25.92
2023-04-07T21:48:48.461Z,21.73
2023-04-07T21:51:15.802Z,23.50
2023-04-07T21:53:42.734Z,30.98
2023-04-07T21:56:09.696Z,37.63
2023-04-07T21:58:37.469Z,41.40
2023-04-07T22:01:04.488Z,34.88
2023-04-07T22:03:32.028Z,38.55
2023-04-07T22:06:00.190Z,41.10
2023-04-07T22:08:27.331Z,36.42
2023-04-07T22:10:54.312Z,39.13
2023-04-07T22:13:21.175Z,37.13
2023-04-07T22:15:48.216Z,39.03
2023-04-07T22:18:15.674Z,40.03
2023-04-07T22:20:42.612Z,38.67
2023-04-07T22:23:09.509Z,38.38
2023-04-07T22:25:36.687Z,38.70
2023-04-07T22:28:03.895Z,36.47
2023-04-07T22:30:30.791Z,36.58
2023-04-07T22:32:57.869Z,34.70
2023-04-07T22:35:24.882Z,35.15
2023-04-07T22:37:51.915Z,38.63
2023-04-07T22:40:19.071Z,41.72
2023-04-07T22:42:46.202Z,42.45
2023-04-07T22:45:13.375Z,39.63
2023-04-07T22:47:40.756Z,39.85
2023-04-07T22:50:08.284Z,38.47
2023-04-07T22:52:35.343Z,44.22
2023-04-07T22:55:02.394Z,35.70
2023-04-07T22:57:30.425Z,35.83
2023-04-07T22:59:57.440Z,37.78
2023-04-07T23:02:24.444Z,36.72
2023-04-07T23:04:52.066Z,44.70
2023-04-07T23:07:19.035Z,31.27
2023-04-07T23:09:46.350Z,34.95
2023-04-07T23:12:13.299Z,34.92
2023-04-07T23:14:40.441Z,33.47
2023-04-07T23:17:07.708Z,30.70
2023-04-07T23:19:34.786Z,30.60
2023-04-07T23:22:01.934Z,32.92
2023-04-07T23:24:28.919Z,36.28
2023-04-07T23:26:56.981Z,31.17
2023-04-07T23:29:24.065Z,31.38
2023-04-07T23:31:51.185Z,28.23
2023-04-07T23:34:18.157Z,33.05
2023-04-07T23:36:45.148Z,29.70
2023-04-07T23:39:12.246Z,30.58
2023-04-07T23:41:39.747Z,33.40
2023-04-07T23:44:07.251Z,33.20
2023-04-07T23:46:34.213Z,30.98
2023-04-07T23:49:02.393Z,36.05
2023-04-07T23:51:30.457Z,30.48
2023-04-07T23:53:57.520Z,30.13
2023-04-07T23:56:24.754Z,31.77
2023-04-07T23:58:51.999Z,29.70
